This is the latest recevied weather packets stored in our database for station/object N4AN. If no packets are shown the sender has not sent any weather packets the latest 1 day(s).
| Time | Temp. | Humidity | Pressure | Rain* | Wind** | Luminosity | Snow |
|---|---|---|---|---|---|---|---|
| 1777972308 | 23.89° C | 90% | 1007.2 hPa | 0 mm | 0.45 m/s, 209° | - | - |
| 1777972008 | 23.33° C | 90% | 1007 hPa | 0 mm | 2.68 m/s, 351° | - | - |
| 1777971695 | 23.33° C | 90% | 1007 hPa | 0 mm | 1.79 m/s, 269° | - | - |
| 1777971395 | 23.33° C | 90% | 1007 hPa | 0 mm | 2.24 m/s, 262° | - | - |
| 1777971095 | 23.33° C | 90% | 1007.2 hPa | 0 mm | 1.34 m/s, 347° | - | - |
| 1777970794 | 23.33° C | 90% | 1007 hPa | 0 mm | 3.58 m/s, 53° | - | - |
| 1777970494 | 23.33° C | 90% | 1007.2 hPa | 0 mm | 1.34 m/s, 335° | - | - |
| 1777970194 | 23.33° C | 90% | 1006.9 hPa | 0 mm | 1.79 m/s, 224° | - | - |
| 1777969892 | 23.33° C | 90% | 1007 hPa | 0 mm | 2.24 m/s, 350° | - | - |
| 1777969591 | 23.33° C | 90% | 1007 hPa | 0 mm | 3.13 m/s, 206° | - | - |
| 1777969290 | 23.33° C | 90% | 1007 hPa | 0 mm | 1.79 m/s, 238° | - | - |
| 1777968990 | 23.33° C | 90% | 1007.1 hPa | 0 mm | 1.79 m/s, 89° | - | - |
| 1777968387 | 22.78° C | 90% | 1007.2 hPa | 0 mm | 1.34 m/s, 236° | - | - |
| 1777968087 | 23.33° C | 90% | 1007 hPa | 0 mm | 3.58 m/s, 212° | - | - |
| 1777967787 | 23.33° C | 90% | 1007.4 hPa | 0 mm | 2.24 m/s, 196° | - | - |
| 1777967486 | 23.33° C | 90% | 1007.6 hPa | 0 mm | 3.13 m/s, 197° | - | - |
| 1777967186 | 23.33° C | 90% | 1007.5 hPa | 0 mm | 1.79 m/s, 255° | - | - |
| 1777966886 | 23.33° C | 90% | 1007.6 hPa | 0 mm | 1.34 m/s, 159° | - | - |
| 1777966585 | 23.33° C | 90% | 1007.6 hPa | 0 mm | 1.79 m/s, 117° | - | - |
| 1777966427 | 23.33° C | 90% | 1007.6 hPa | 0 mm | 1.79 m/s, 183° | - | - |
| 1777966282 | 23.33° C | 90% | 1007.6 hPa | 0 mm | 1.79 m/s, 183° | - | - |
| 1777965982 | 23.33° C | 90% | 1007.5 hPa | 0 mm | 1.34 m/s, 46° | - | - |
| 1777965681 | 23.33° C | 90% | 1007.5 hPa | 0 mm | 1.79 m/s, 187° | - | - |
| 1777965381 | 23.33° C | 90% | 1007.6 hPa | 0 mm | 0.45 m/s, 152° | - | - |
| 1777965078 | 23.33° C | 90% | 1007.3 hPa | 0 mm | 4.02 m/s, 94° | - | - |
* Rain latest hour (hover to see other rain measurements)
** Current wind speed in m/s (hover to see current wind gust speed)